createdAt,value
2018-05-13T00:01:52.702Z,19.10
2018-05-13T00:04:21.013Z,19.10
2018-05-13T00:06:50.216Z,19.00
2018-05-13T00:09:18.486Z,19.00
2018-05-13T00:11:46.753Z,18.90
2018-05-13T00:14:15.071Z,18.90
2018-05-13T00:16:43.487Z,18.90
2018-05-13T00:19:12.528Z,18.80
2018-05-13T00:21:40.817Z,18.80
2018-05-13T00:24:09.086Z,18.80
2018-05-13T00:26:37.393Z,18.70
2018-05-13T00:29:05.669Z,18.70
2018-05-13T00:31:33.940Z,18.60
2018-05-13T00:34:02.232Z,18.60
2018-05-13T00:36:30.502Z,18.60
2018-05-13T00:38:58.783Z,18.50
2018-05-13T00:41:27.057Z,18.50
2018-05-13T00:43:55.381Z,18.40
2018-05-13T00:46:23.659Z,18.40
2018-05-13T00:48:52.166Z,18.40
2018-05-13T00:51:20.448Z,18.30
2018-05-13T00:53:48.718Z,18.30
2018-05-13T00:56:17.024Z,18.30
2018-05-13T00:58:46.195Z,18.30
2018-05-13T01:01:14.492Z,18.20
2018-05-13T01:03:42.770Z,18.20
2018-05-13T01:06:11.093Z,18.20
2018-05-13T01:08:39.334Z,18.20
2018-05-13T01:11:07.600Z,18.10
2018-05-13T01:13:35.922Z,18.10
2018-05-13T01:16:04.196Z,18.10
2018-05-13T01:18:33.524Z,18.00
2018-05-13T01:21:02.113Z,18.00
2018-05-13T01:23:30.391Z,18.00
2018-05-13T01:25:58.733Z,18.00
2018-05-13T01:28:27.024Z,17.90
2018-05-13T01:30:56.103Z,17.80
2018-05-13T01:33:25.178Z,17.80
2018-05-13T01:35:53.424Z,17.70
2018-05-13T01:38:21.720Z,17.70
2018-05-13T01:40:50.004Z,17.70
2018-05-13T01:43:19.111Z,17.60
2018-05-13T01:45:47.369Z,17.60
2018-05-13T01:48:15.642Z,17.60
2018-05-13T01:50:43.941Z,17.50
2018-05-13T01:53:12.269Z,17.50
2018-05-13T01:55:40.591Z,17.50
2018-05-13T01:58:08.868Z,17.40
2018-05-13T02:00:37.125Z,17.40
2018-05-13T02:03:05.426Z,17.40
2018-05-13T02:05:33.712Z,17.30
2018-05-13T02:08:02.033Z,17.30
2018-05-13T02:10:30.335Z,17.30
2018-05-13T02:12:58.598Z,17.30
2018-05-13T02:15:27.547Z,17.30
2018-05-13T02:17:56.079Z,17.20
2018-05-13T02:20:25.113Z,17.20
2018-05-13T02:22:53.396Z,17.20
2018-05-13T02:25:21.677Z,17.20
2018-05-13T02:27:49.987Z,17.20
2018-05-13T02:30:19.347Z,17.10
2018-05-13T02:32:47.623Z,17.10
2018-05-13T02:35:15.899Z,17.10
2018-05-13T02:37:44.181Z,17.10
2018-05-13T02:40:12.456Z,17.00
2018-05-13T02:42:40.765Z,17.00
2018-05-13T02:45:09.812Z,16.90
2018-05-13T02:47:38.110Z,17.00
2018-05-13T02:50:06.380Z,17.00
2018-05-13T02:52:34.669Z,17.00
2018-05-13T02:55:02.959Z,16.90
2018-05-13T02:57:31.247Z,16.90
2018-05-13T02:59:59.540Z,16.90
2018-05-13T03:02:27.814Z,16.90
2018-05-13T03:04:56.857Z,16.80
2018-05-13T03:07:25.157Z,16.80
2018-05-13T03:09:54.223Z,16.80
2018-05-13T03:12:22.525Z,16.50
2018-05-13T03:14:50.840Z,16.80
2018-05-13T03:17:19.095Z,16.80
2018-05-13T03:19:47.393Z,16.80
2018-05-13T03:22:16.428Z,16.70
2018-05-13T03:24:44.754Z,16.70
2018-05-13T03:27:13.069Z,16.70
2018-05-13T03:29:41.336Z,16.70
2018-05-13T03:32:09.633Z,16.70
2018-05-13T03:34:37.909Z,16.70
2018-05-13T03:37:06.207Z,16.70
2018-05-13T03:39:34.466Z,16.70
2018-05-13T03:42:03.513Z,16.60
2018-05-13T03:44:31.808Z,16.60
2018-05-13T03:47:00.833Z,16.60
2018-05-13T03:49:29.170Z,16.60
2018-05-13T03:51:57.461Z,16.60
2018-05-13T03:54:26.484Z,16.60
2018-05-13T03:56:54.786Z,16.60
2018-05-13T03:59:23.065Z,16.60
2018-05-13T04:01:51.358Z,16.60
2018-05-13T04:04:19.805Z,16.60
2018-05-13T04:06:48.054Z,16.60
2018-05-13T04:12:30.222Z,16.70
2018-05-13T04:15:11.209Z,16.70
2018-05-13T04:17:39.475Z,16.70
2018-05-13T04:20:07.771Z,16.80
2018-05-13T04:22:36.058Z,16.80
2018-05-13T04:25:04.350Z,16.90
2018-05-13T04:27:32.633Z,16.90
2018-05-13T04:30:00.915Z,17.00
2018-05-13T04:32:29.978Z,17.10
2018-05-13T04:34:58.236Z,17.10
2018-05-13T04:37:26.576Z,17.20
2018-05-13T04:39:54.850Z,17.30
2018-05-13T04:42:23.907Z,17.40
2018-05-13T04:44:52.182Z,17.40
2018-05-13T04:47:20.466Z,17.50
2018-05-13T04:49:48.755Z,17.60
2018-05-13T04:52:17.023Z,17.80
2018-05-13T04:54:45.317Z,17.80
2018-05-13T04:57:13.573Z,17.90
2018-05-13T04:59:41.849Z,18.00
2018-05-13T05:02:10.147Z,18.10
2018-05-13T05:04:38.436Z,18.20
2018-05-13T05:07:06.726Z,18.40
2018-05-13T05:09:35.769Z,18.60
2018-05-13T05:12:04.046Z,18.50
2018-05-13T05:14:32.328Z,18.70
2018-05-13T05:17:00.594Z,18.70
2018-05-13T05:19:28.886Z,18.80
2018-05-13T05:21:57.179Z,18.90
2018-05-13T05:24:25.479Z,19.00
2018-05-13T05:26:53.771Z,19.10
2018-05-13T05:29:22.801Z,19.30
2018-05-13T05:31:51.109Z,19.30
2018-05-13T05:34:19.366Z,19.40
2018-05-13T05:36:47.644Z,19.40
2018-05-13T05:39:15.963Z,19.50
2018-05-13T05:41:44.998Z,19.60
2018-05-13T05:44:13.310Z,19.50
2018-05-13T05:46:41.570Z,19.60
2018-05-13T05:49:11.362Z,19.70
2018-05-13T05:51:39.616Z,19.70
2018-05-13T05:54:08.743Z,19.70
2018-05-13T05:56:37.030Z,19.70
2018-05-13T05:59:05.302Z,19.80
2018-05-13T06:01:33.591Z,19.80
2018-05-13T06:04:01.858Z,19.90
2018-05-13T06:06:30.163Z,19.90
2018-05-13T06:08:58.421Z,19.90
2018-05-13T06:11:26.696Z,20.00
2018-05-13T06:13:55.024Z,20.00
2018-05-13T06:16:23.311Z,20.10
2018-05-13T06:18:52.380Z,20.30
2018-05-13T06:21:20.654Z,20.30
2018-05-13T06:23:48.968Z,20.40
2018-05-13T06:26:18.014Z,20.60
2018-05-13T06:28:47.806Z,20.70
2018-05-13T06:31:16.103Z,20.70
2018-05-13T06:33:44.377Z,20.80
2018-05-13T06:36:12.673Z,21.00
2018-05-13T06:38:40.938Z,21.20
2018-05-13T06:41:09.243Z,21.40
2018-05-13T06:43:37.515Z,21.50
2018-05-13T06:46:05.800Z,21.70
2018-05-13T06:48:34.105Z,21.80
2018-05-13T06:51:02.579Z,21.90
2018-05-13T06:53:30.743Z,22.10
2018-05-13T06:55:59.123Z,22.20
2018-05-13T06:58:27.426Z,22.30
2018-05-13T07:00:55.745Z,22.40
2018-05-13T07:03:24.822Z,22.70
2018-05-13T07:05:53.114Z,22.60
2018-05-13T07:08:21.698Z,22.80
2018-05-13T07:10:49.976Z,22.90
2018-05-13T07:13:18.241Z,23.00
2018-05-13T07:15:46.540Z,23.20
2018-05-13T07:18:14.825Z,23.30
2018-05-13T07:20:43.106Z,23.40
2018-05-13T07:23:12.307Z,23.50
2018-05-13T07:25:40.584Z,23.60
2018-05-13T07:28:08.869Z,23.70
2018-05-13T07:30:37.209Z,23.80
2018-05-13T07:33:05.478Z,23.90
2018-05-13T07:35:33.760Z,24.00
2018-05-13T07:38:02.064Z,24.10
2018-05-13T07:40:30.348Z,24.20
2018-05-13T07:42:58.617Z,24.30
2018-05-13T07:45:26.909Z,24.30
2018-05-13T07:47:55.172Z,24.40
2018-05-13T07:50:23.449Z,24.50
2018-05-13T07:52:51.745Z,24.60
2018-05-13T07:55:19.999Z,24.60
2018-05-13T07:57:48.350Z,24.70
2018-05-13T08:00:16.561Z,24.80
2018-05-13T08:02:44.951Z,24.90
2018-05-13T08:05:13.271Z,24.90
2018-05-13T08:07:42.365Z,25.10
2018-05-13T08:10:11.537Z,25.20
2018-05-13T08:12:39.809Z,25.10
2018-05-13T08:15:08.100Z,25.20
2018-05-13T08:17:36.357Z,25.30
2018-05-13T08:20:04.648Z,25.40
2018-05-13T08:22:33.301Z,25.50
2018-05-13T08:25:01.695Z,25.50
2018-05-13T08:27:30.265Z,25.60
2018-05-13T08:29:58.714Z,25.70
2018-05-13T08:32:27.255Z,25.80
2018-05-13T08:34:55.700Z,25.80
2018-05-13T08:37:24.875Z,25.90
2018-05-13T08:39:55.268Z,25.90
2018-05-13T08:42:24.673Z,26.00
2018-05-13T08:44:53.110Z,26.10
2018-05-13T08:47:22.638Z,26.10
2018-05-13T08:49:51.896Z,26.20
2018-05-13T08:52:20.705Z,26.10
2018-05-13T08:54:49.597Z,26.20
2018-05-13T08:57:18.883Z,26.30
2018-05-13T08:59:47.911Z,26.50
2018-05-13T09:02:16.199Z,26.50
2018-05-13T09:04:44.478Z,26.60
2018-05-13T09:07:12.840Z,26.80
2018-05-13T09:09:41.994Z,26.90
2018-05-13T09:12:10.359Z,27.00
2018-05-13T09:14:39.606Z,27.20
2018-05-13T09:17:07.907Z,27.30
2018-05-13T09:19:36.296Z,27.30
2018-05-13T09:22:04.569Z,27.30
2018-05-13T09:24:32.848Z,27.30
2018-05-13T09:27:01.122Z,27.30
2018-05-13T09:29:29.546Z,27.30
2018-05-13T09:31:57.869Z,27.40
2018-05-13T09:34:26.183Z,27.40
2018-05-13T09:36:54.438Z,27.50
2018-05-13T09:39:22.757Z,27.60
2018-05-13T09:41:51.021Z,27.70
2018-05-13T09:44:19.328Z,27.80
2018-05-13T09:46:47.693Z,27.90
2018-05-13T09:49:15.929Z,27.80
2018-05-13T09:51:44.214Z,27.90
2018-05-13T09:54:13.241Z,27.90
2018-05-13T09:56:41.543Z,27.90
2018-05-13T09:59:10.592Z,27.80
2018-05-13T10:01:38.922Z,27.80
2018-05-13T10:04:07.991Z,27.90
2018-05-13T10:06:36.269Z,27.80
2018-05-13T10:09:05.446Z,27.90
2018-05-13T10:11:33.717Z,27.90
2018-05-13T10:14:02.102Z,28.00
2018-05-13T10:16:31.197Z,28.00
2018-05-13T10:19:00.297Z,28.00
2018-05-13T10:21:28.576Z,28.00
2018-05-13T10:23:56.898Z,28.10
2018-05-13T10:26:25.909Z,27.90
2018-05-13T10:28:54.277Z,28.00
2018-05-13T10:31:22.598Z,27.90
2018-05-13T10:33:51.016Z,27.90
2018-05-13T10:36:19.326Z,27.90
2018-05-13T10:38:47.640Z,28.00
2018-05-13T10:41:15.936Z,28.00
2018-05-13T10:43:44.206Z,28.10
2018-05-13T10:46:12.555Z,28.20
2018-05-13T10:48:40.838Z,28.10
2018-05-13T10:51:09.113Z,28.20
2018-05-13T10:53:37.398Z,28.20
2018-05-13T10:56:05.677Z,28.20
2018-05-13T10:58:33.944Z,28.20
2018-05-13T11:01:02.976Z,28.20
2018-05-13T11:03:31.254Z,28.10
2018-05-13T11:06:00.391Z,28.20
2018-05-13T11:08:29.460Z,28.20
2018-05-13T11:10:57.715Z,28.20
2018-05-13T11:13:25.982Z,28.20
2018-05-13T11:15:54.281Z,28.20
2018-05-13T11:18:22.542Z,28.20
2018-05-13T11:20:50.821Z,28.20
2018-05-13T11:23:19.095Z,28.20
2018-05-13T11:25:47.416Z,28.40
2018-05-13T11:28:15.687Z,28.70
2018-05-13T11:30:43.966Z,29.30
2018-05-13T11:33:12.265Z,30.10
2018-05-13T11:35:40.550Z,30.90
2018-05-13T11:38:08.859Z,31.60
2018-05-13T11:40:37.146Z,32.40
2018-05-13T11:43:05.430Z,33.10
2018-05-13T11:45:33.710Z,33.70
2018-05-13T11:48:02.873Z,34.20
2018-05-13T11:50:31.147Z,34.50
2018-05-13T11:52:59.468Z,34.70
2018-05-13T11:55:27.772Z,35.00
2018-05-13T11:57:56.126Z,35.80
2018-05-13T12:00:24.422Z,35.90
2018-05-13T12:02:52.692Z,36.20
2018-05-13T12:05:20.986Z,36.30
2018-05-13T12:07:49.272Z,36.30
2018-05-13T12:10:17.718Z,36.50
2018-05-13T12:12:45.987Z,36.90
2018-05-13T12:15:14.334Z,37.30
2018-05-13T12:17:42.584Z,37.80
2018-05-13T12:20:10.840Z,38.40
2018-05-13T12:22:39.134Z,38.70
2018-05-13T12:25:07.398Z,39.10
2018-05-13T12:27:35.701Z,39.50
2018-05-13T12:30:04.810Z,40.50
2018-05-13T12:32:36.433Z,40.50
2018-05-13T12:35:04.706Z,41.10
2018-05-13T12:37:32.943Z,41.60
2018-05-13T12:40:01.736Z,42.10
2018-05-13T12:42:30.058Z,42.30
2018-05-13T12:44:58.329Z,42.50
2018-05-13T12:47:26.611Z,42.50
2018-05-13T12:49:54.877Z,42.60
2018-05-13T12:52:23.347Z,42.60
2018-05-13T12:54:51.624Z,42.50
2018-05-13T12:57:19.883Z,42.30
2018-05-13T12:59:48.176Z,42.20
2018-05-13T13:02:16.477Z,42.20
2018-05-13T13:04:44.813Z,42.20
2018-05-13T13:07:13.077Z,41.90
2018-05-13T13:09:41.418Z,41.80
2018-05-13T13:12:09.728Z,41.80
2018-05-13T13:14:38.787Z,41.40
2018-05-13T13:17:07.858Z,41.30
2018-05-13T13:19:36.129Z,41.30
2018-05-13T13:22:04.584Z,41.50
2018-05-13T13:24:32.780Z,41.40
2018-05-13T13:27:01.085Z,41.20
2018-05-13T13:29:29.340Z,41.20
2018-05-13T13:31:57.630Z,41.30
2018-05-13T13:34:25.906Z,41.40
2018-05-13T13:36:54.202Z,41.30
2018-05-13T13:39:22.460Z,41.40
2018-05-13T13:41:50.762Z,41.70
2018-05-13T13:44:19.045Z,41.80
2018-05-13T13:46:47.321Z,41.80
2018-05-13T13:49:15.595Z,42.10
2018-05-13T13:51:43.886Z,42.20
2018-05-13T13:54:12.145Z,42.30
2018-05-13T13:56:40.423Z,42.30
2018-05-13T13:59:09.109Z,42.20
2018-05-13T14:01:37.410Z,42.20
2018-05-13T14:04:05.668Z,42.20
2018-05-13T14:06:33.950Z,42.00
2018-05-13T14:09:02.226Z,41.90
2018-05-13T14:11:30.570Z,41.80
2018-05-13T14:13:58.842Z,41.80
2018-05-13T14:16:27.195Z,42.10
2018-05-13T14:18:56.447Z,42.40
2018-05-13T14:21:24.727Z,42.50
2018-05-13T14:23:53.257Z,42.20
2018-05-13T14:26:21.503Z,41.50
2018-05-13T14:28:49.775Z,40.70
2018-05-13T14:31:18.064Z,39.80
2018-05-13T14:33:46.335Z,39.30
2018-05-13T14:36:14.623Z,39.00
2018-05-13T14:38:42.891Z,38.70
2018-05-13T14:41:11.213Z,38.60
2018-05-13T14:43:39.478Z,38.70
2018-05-13T14:46:07.759Z,38.80
2018-05-13T14:48:36.075Z,39.00
2018-05-13T14:51:04.379Z,39.20
2018-05-13T14:53:41.069Z,39.50
2018-05-13T14:56:10.902Z,39.10
2018-05-13T14:58:39.437Z,39.00
2018-05-13T15:01:08.710Z,38.20
2018-05-13T15:03:38.214Z,37.40
2018-05-13T15:06:07.500Z,36.40
2018-05-13T15:08:36.679Z,34.70
2018-05-13T15:11:05.027Z,34.60
2018-05-13T15:13:34.182Z,34.20
2018-05-13T15:16:02.746Z,34.20
2018-05-13T15:18:31.221Z,34.50
2018-05-13T15:20:59.694Z,35.10
2018-05-13T15:23:28.344Z,35.60
2018-05-13T15:25:57.085Z,36.30
2018-05-13T15:28:25.385Z,36.70
2018-05-13T15:30:54.053Z,37.00
2018-05-13T15:33:22.568Z,37.20
2018-05-13T15:35:50.858Z,37.40
2018-05-13T15:38:19.513Z,37.60
2018-05-13T15:40:47.944Z,37.60
2018-05-13T15:43:16.404Z,37.40
2018-05-13T15:45:44.891Z,37.30
2018-05-13T15:48:13.480Z,37.50
2018-05-13T15:50:42.723Z,37.60
2018-05-13T15:53:15.461Z,37.70
2018-05-13T15:55:43.895Z,37.70
2018-05-13T15:58:12.782Z,37.60
2018-05-13T16:00:41.298Z,37.50
2018-05-13T16:03:10.465Z,37.20
2018-05-13T16:05:39.019Z,37.20
2018-05-13T16:08:07.884Z,37.30
2018-05-13T16:10:38.263Z,37.20
2018-05-13T16:13:06.872Z,37.00
2018-05-13T16:15:35.148Z,36.80
2018-05-13T16:18:04.897Z,36.40
2018-05-13T16:20:33.343Z,36.40
2018-05-13T16:23:02.551Z,36.30
2018-05-13T16:25:31.713Z,36.30
2018-05-13T16:28:00.091Z,36.30
2018-05-13T16:30:28.314Z,36.40
2018-05-13T16:32:56.649Z,36.40
2018-05-13T16:35:24.903Z,36.30
2018-05-13T16:37:53.171Z,36.10
2018-05-13T16:40:21.457Z,36.00
2018-05-13T16:42:49.792Z,35.80
2018-05-13T16:45:39.297Z,35.40
2018-05-13T16:48:12.815Z,35.30
2018-05-13T16:50:41.724Z,35.20
2018-05-13T16:53:11.083Z,34.90
2018-05-13T16:55:39.435Z,34.90
2018-05-13T16:58:07.797Z,34.70
2018-05-13T17:00:36.095Z,34.50
2018-05-13T17:03:04.370Z,34.40
2018-05-13T17:05:41.255Z,34.20
2018-05-13T17:08:11.779Z,34.00
2018-05-13T17:10:40.185Z,33.90
2018-05-13T17:13:09.252Z,33.40
2018-05-13T17:15:37.647Z,33.40
2018-05-13T17:18:06.312Z,33.40
2018-05-13T17:20:35.158Z,33.30
2018-05-13T17:23:04.503Z,32.80
2018-05-13T17:25:34.987Z,32.80
2018-05-13T17:28:03.270Z,32.70
2018-05-13T17:30:31.575Z,32.50
2018-05-13T17:32:59.875Z,32.30
2018-05-13T17:35:28.343Z,32.10
2018-05-13T17:37:56.697Z,32.00
2018-05-13T17:40:24.985Z,31.80
2018-05-13T17:42:53.300Z,31.60
2018-05-13T17:45:21.770Z,31.30
2018-05-13T17:47:50.215Z,31.10
2018-05-13T17:50:18.568Z,30.70
2018-05-13T17:52:47.881Z,30.20
2018-05-13T17:55:18.291Z,30.20
2018-05-13T17:57:46.598Z,29.80
2018-05-13T18:00:14.884Z,29.50
2018-05-13T18:02:43.304Z,29.10
2018-05-13T18:05:11.647Z,28.70
2018-05-13T18:07:40.470Z,28.40
2018-05-13T18:10:08.755Z,28.10
2018-05-13T18:12:37.046Z,27.80
2018-05-13T18:15:06.119Z,27.30
2018-05-13T18:17:34.369Z,27.20
2018-05-13T18:20:02.715Z,27.00
2018-05-13T18:22:31.731Z,26.60
2018-05-13T18:25:00.102Z,26.60
2018-05-13T18:27:28.731Z,26.40
2018-05-13T18:29:57.857Z,26.10
2018-05-13T18:32:27.260Z,26.10
2018-05-13T18:34:55.747Z,25.90
2018-05-13T18:37:25.059Z,25.60
2018-05-13T18:39:55.784Z,25.50
2018-05-13T18:42:24.261Z,25.50
2018-05-13T18:44:52.567Z,25.40
2018-05-13T18:47:20.861Z,25.20
2018-05-13T18:49:49.336Z,25.10
2018-05-13T18:52:18.661Z,24.80
2018-05-13T18:54:47.048Z,24.80
2018-05-13T18:57:15.347Z,24.70
2018-05-13T18:59:43.619Z,24.60
2018-05-13T19:02:11.903Z,24.50
2018-05-13T19:04:40.506Z,24.30
2018-05-13T19:07:09.273Z,24.30
2018-05-13T19:09:37.631Z,24.20
2018-05-13T19:12:07.928Z,24.10
2018-05-13T19:14:36.287Z,24.00
2018-05-13T19:17:04.639Z,23.90
2018-05-13T19:19:32.888Z,23.80
2018-05-13T19:22:01.196Z,23.70
2018-05-13T19:24:29.473Z,23.70
2018-05-13T19:26:57.793Z,23.60
2018-05-13T19:29:26.394Z,23.50
2018-05-13T19:31:54.775Z,23.40
2018-05-13T19:34:23.048Z,23.30
2018-05-13T19:36:51.441Z,23.20
2018-05-13T19:39:19.720Z,23.10
2018-05-13T19:41:48.049Z,23.10
2018-05-13T19:44:16.336Z,23.00
2018-05-13T19:46:45.719Z,22.90
2018-05-13T19:49:13.977Z,22.80
2018-05-13T19:51:42.498Z,22.80
2018-05-13T19:54:11.551Z,22.70
2018-05-13T19:56:39.858Z,22.60
2018-05-13T19:59:08.146Z,22.60
2018-05-13T20:01:37.243Z,22.60
2018-05-13T20:04:05.513Z,22.60
2018-05-13T20:06:34.576Z,22.50
2018-05-13T20:09:03.002Z,22.50
2018-05-13T20:11:31.272Z,22.50
2018-05-13T20:13:59.978Z,22.50
2018-05-13T20:16:28.431Z,22.40
2018-05-13T20:18:56.905Z,22.40
2018-05-13T20:21:26.383Z,22.40
2018-05-13T20:23:54.758Z,22.30
2018-05-13T20:26:23.199Z,22.30
2018-05-13T20:28:51.728Z,22.30
2018-05-13T20:31:20.198Z,22.30
2018-05-13T20:33:49.389Z,22.30
2018-05-13T20:36:17.666Z,22.20
2018-05-13T20:38:45.955Z,22.20
2018-05-13T20:41:14.212Z,22.20
2018-05-13T20:43:42.512Z,22.10
2018-05-13T20:46:10.785Z,22.00
2018-05-13T20:48:39.100Z,22.00
2018-05-13T20:51:07.364Z,21.90
2018-05-13T20:53:35.691Z,21.80
2018-05-13T20:56:03.946Z,21.80
2018-05-13T20:58:32.231Z,21.70
2018-05-13T21:01:01.296Z,21.60
2018-05-13T21:03:29.631Z,21.60
2018-05-13T21:05:59.432Z,21.50
2018-05-13T21:08:28.509Z,21.40
2018-05-13T21:10:56.780Z,21.40
2018-05-13T21:13:25.095Z,21.30
2018-05-13T21:15:54.134Z,21.20
2018-05-13T21:18:22.407Z,21.10
2018-05-13T21:20:50.685Z,21.10
2018-05-13T21:23:18.985Z,20.90
2018-05-13T21:25:47.253Z,20.90
2018-05-13T21:28:15.507Z,20.80
2018-05-13T21:30:43.820Z,20.70
2018-05-13T21:33:12.097Z,20.70
2018-05-13T21:35:40.391Z,20.60
2018-05-13T21:38:08.637Z,20.50
2018-05-13T21:40:36.934Z,20.40
2018-05-13T21:43:05.222Z,20.40
2018-05-13T21:45:33.510Z,20.30
2018-05-13T21:48:02.535Z,20.20
2018-05-13T21:50:30.831Z,20.10
2018-05-13T21:52:59.091Z,20.10
2018-05-13T21:55:27.399Z,20.10
2018-05-13T21:57:55.672Z,20.00
2018-05-13T22:00:24.008Z,20.00
2018-05-13T22:02:52.261Z,19.90
2018-05-13T22:05:20.547Z,19.90
2018-05-13T22:07:50.085Z,19.80
2018-05-13T22:10:18.447Z,19.80
2018-05-13T22:12:47.471Z,19.70
2018-05-13T22:15:15.756Z,19.70
2018-05-13T22:17:44.043Z,19.70
2018-05-13T22:20:12.389Z,19.70
2018-05-13T22:22:40.653Z,19.70
2018-05-13T22:25:08.923Z,19.60
2018-05-13T22:27:37.950Z,19.60
2018-05-13T22:30:06.255Z,19.60
2018-05-13T22:32:34.522Z,19.60
2018-05-13T22:35:02.808Z,19.60
2018-05-13T22:37:31.077Z,19.50
2018-05-13T22:39:59.381Z,19.50
2018-05-13T22:42:27.653Z,19.50
2018-05-13T22:44:55.938Z,19.60
2018-05-13T22:47:24.187Z,19.60
2018-05-13T22:49:52.472Z,19.60
2018-05-13T22:52:20.728Z,19.50
2018-05-13T22:54:49.070Z,19.50
2018-05-13T22:57:18.090Z,19.60
2018-05-13T22:59:46.347Z,19.60
2018-05-13T23:02:15.398Z,19.60
2018-05-13T23:04:43.649Z,19.60
2018-05-13T23:07:11.942Z,19.60
2018-05-13T23:09:40.191Z,19.60
2018-05-13T23:12:08.487Z,19.60
2018-05-13T23:14:36.745Z,19.70
2018-05-13T23:17:05.797Z,19.80
2018-05-13T23:19:34.056Z,19.80
2018-05-13T23:22:02.316Z,19.80
2018-05-13T23:24:30.609Z,19.70
2018-05-13T23:26:58.907Z,19.70
2018-05-13T23:29:27.159Z,19.70
2018-05-13T23:31:55.422Z,19.70
2018-05-13T23:34:23.792Z,19.60
2018-05-13T23:36:51.970Z,19.60
2018-05-13T23:39:20.293Z,19.50
2018-05-13T23:41:48.570Z,19.40
2018-05-13T23:44:16.854Z,19.40
2018-05-13T23:46:45.159Z,19.40
2018-05-13T23:49:13.355Z,19.30
2018-05-13T23:51:41.634Z,19.20
2018-05-13T23:54:09.902Z,19.20
2018-05-13T23:56:38.189Z,19.10
2018-05-13T23:59:06.449Z,19.00
